Alto, NM

6:10 PM MDT on August 28, 2016 (GMT -0600)
Eagle Creek Canyon | | Change Station

Elev 7200 ft 33.39 °N, 105.65 °W | Updated 5 seconds ago

Clear
Clear
66.4 °F
Feels Like 66.4 °F
N
2.0
Wind Variable Wind from East
Gusts 2.0 mph

Today
High -- | Low -- °F
--% Chance of Precip.
Yesterday
High -- | Low -- °F
Precip. -- in
Pressure 30.30 in
Visibility 10.0 miles
Clouds
Dew Point 53 °F
Humidity 62%
Rainfall 0.04 in
Snow Depth Not available.
6:34 AM 7:32 PM
Waning Crescent, 12% visible
METAR KSRR 282355Z AUTO 31003KT 10SM 19/11 A3030 RMK AO2
Pressure 30.30 in
Visibility 10.0 miles
Clouds
Dew Point 53 °F
Humidity 62%
Rainfall 0.04 in
Snow Depth Not available.
6:34 AM 7:32 PM
Waning Crescent, 12% visible
METAR KSRR 282355Z AUTO 31003KT 10SM 19/11 A3030 RMK AO2

10-Day Weather Forecast

Almanac

Astronomy

Aug. 28, 2016 Rise Set
Actual Time
Civil Twilight
Nautical Twilight
Astronomical Twilight
Moon
Length of Visible Light
Length of Day
Tomorrow will be .
, % of the Moon is Illuminated

Today's Extremes

State Highs State Lows

Community

WunderPhotos

Upload Photos

1,935,726 photos uploaded!

WunderBlog® & News

Nearby

Air Quality

  Air Quality AQ Index Pollutant
Not available.

Snow Depth

Station Depth Elevation

Earthquake Activity

City Distance Mag. Time & Date
Minimum magnitude displayed is 2.5.

Coastal Water Temperatures

Place Temperature

Stations

Nearby Weather Stations

Station Location Temp. Windchill Dew Point Humidity Wind Precip. Elev Updated Type
                   

Watches & Warnings

There are currently no watches in effect.